Time;durP1;ratioP1;P1;durP2;ratioP2;P2;SDS_P1;SDS_P2;PMS_P1;PMS_P2;Temp;Humidity;BMP_temperature;BMP_pressure;BME280_temperature;BME280_humidity;BME280_pressure;Samples;Min_cycle;Max_cycle;Signal;HPM_P1;HPM_P2
2022/01/30 00:01:49;;;;;;;18.88;5.20;;;;;;;;;;5983561;29;20137;-76
2022/01/30 00:04:52;;;;;;;13.48;4.70;;;;;;;;;;5997231;29;20070;-78
2022/01/30 00:07:55;;;;;;;13.85;5.85;;;;;;;;;;5983117;29;20054;-77
2022/01/30 00:11:09;;;;;;;16.38;5.25;;;;;;;;;;5982418;29;20511;-77
2022/01/30 00:14:17;;;;;;;13.05;5.30;;;;;;;;;;5980215;29;20528;-76
2022/01/30 00:17:24;;;;;;;21.20;8.48;;;;;;;;;;5965677;29;20103;-75
2022/01/30 00:20:33;;;;;;;13.73;5.45;;;;;;;;;;5982515;29;20130;-76
2022/01/30 00:23:43;;;;;;;14.55;5.85;;;;;;;;;;5982462;29;20054;-75
2022/01/30 00:26:50;;;;;;;11.85;5.38;;;;;;;;;;5968643;29;20077;-76
2022/01/30 00:29:57;;;;;;;19.40;5.97;;;;;;;;;;5985402;29;20410;-76
2022/01/30 00:33:00;;;;;;;16.80;5.90;;;;;;;;;;5984766;29;20042;-75
2022/01/30 00:36:08;;;;;;;10.98;5.20;;;;;;;;;;5984004;29;20050;-75
2022/01/30 00:39:12;;;;;;;10.07;4.53;;;;;;;;;;5969198;29;20145;-76
2022/01/30 00:42:18;;;;;;;12.40;4.80;;;;;;;;;;5984898;29;20055;-75
2022/01/30 00:45:23;;;;;;;11.48;4.70;;;;;;;;;;5985409;29;20057;-76
2022/01/30 00:48:26;;;;;;;10.82;4.53;;;;;;;;;;5983455;29;20087;-77
2022/01/30 00:51:29;;;;;;;14.45;5.00;;;;;;;;;;5984598;29;20050;-78
2022/01/30 00:54:32;;;;;;;13.45;5.40;;;;;;;;;;5984134;29;20054;-78
2022/01/30 00:57:35;;;;;;;12.57;4.72;;;;;;;;;;5984005;29;20126;-77
2022/01/30 01:00:40;;;;;;;11.07;4.80;;;;;;;;;;5984350;29;20095;-79
2022/01/30 01:03:44;;;;;;;13.05;4.88;;;;;;;;;;5984534;29;20584;-78
2022/01/30 01:06:50;;;;;;;;;;;;;;;;;;5984078;29;20536;-76
2022/01/30 01:10:02;;;;;;;13.20;4.82;;;;;;;;;;5999100;29;20030;-80
2022/01/30 01:13:19;;;;;;;14.75;5.78;;;;;;;;;;5985050;29;20062;-78
2022/01/30 01:23:25;;;;;;;11.45;5.20;;;;;;;;;;5983442;29;20513;-80
2022/01/30 01:26:29;;;;;;;11.13;4.82;;;;;;;;;;5984715;29;20061;-80
2022/01/30 01:29:32;;;;;;;14.18;5.40;;;;;;;;;;5985270;29;20150;-80
2022/01/30 01:32:36;;;;;;;13.88;5.28;;;;;;;;;;5984464;29;20050;-80
2022/01/30 01:35:40;;;;;;;14.35;6.00;;;;;;;;;;5982798;29;20570;-80
2022/01/30 01:38:43;;;;;;;12.00;4.90;;;;;;;;;;5984331;29;20046;-80
2022/01/30 01:41:48;;;;;;;12.77;5.00;;;;;;;;;;5982648;29;20137;-80
2022/01/30 01:44:55;;;;;;;17.80;5.45;;;;;;;;;;5980589;29;20050;-79
2022/01/30 01:48:02;;;;;;;12.52;5.03;;;;;;;;;;5981447;29;20139;-79
2022/01/30 01:51:13;;;;;;;14.00;4.88;;;;;;;;;;5981266;29;20077;-79
2022/01/30 01:54:17;;;;;;;12.50;5.18;;;;;;;;;;5982424;29;20490;-80
2022/01/30 01:57:20;;;;;;;15.05;5.00;;;;;;;;;;5982263;29;20057;-80
2022/01/30 02:00:27;;;;;;;9.45;4.97;;;;;;;;;;5982738;29;20042;-79
2022/01/30 02:03:35;;;;;;;10.73;4.72;;;;;;;;;;5997888;29;20054;-79
2022/01/30 02:06:38;;;;;;;11.00;4.68;;;;;;;;;;5983666;29;20153;-79
2022/01/30 02:09:42;;;;;;;11.02;4.93;;;;;;;;;;5997157;29;20084;-78
2022/01/30 02:12:49;;;;;;;12.20;4.72;;;;;;;;;;5980341;29;20136;-78
2022/01/30 02:26:03;;;;;;;11.50;4.82;;;;;;;;;;5982936;29;20508;-78
2022/01/30 02:29:06;;;;;;;15.75;4.82;;;;;;;;;;5983370;29;20058;-77
2022/01/30 02:32:11;;;;;;;13.30;5.17;;;;;;;;;;5982790;29;20129;-81
2022/01/30 02:35:15;;;;;;;14.52;5.25;;;;;;;;;;5983097;29;20054;-81
2022/01/30 02:38:20;;;;;;;12.90;5.30;;;;;;;;;;5982154;29;20132;-80
2022/01/30 02:41:24;;;;;;;10.48;4.57;;;;;;;;;;5981831;29;20050;-75
2022/01/30 02:44:35;;;;;;;8.38;4.38;;;;;;;;;;5982566;29;20137;-74
2022/01/30 02:47:52;;;;;;;11.35;4.90;;;;;;;;;;5982691;29;20061;-75
2022/01/30 02:51:08;;;;;;;8.77;4.25;;;;;;;;;;5981787;29;20129;-74
2022/01/30 02:54:13;;;;;;;11.05;4.20;;;;;;;;;;5968514;29;20054;-78
2022/01/30 02:57:17;;;;;;;11.05;4.45;;;;;;;;;;5982830;29;20058;-78
2022/01/30 03:00:22;;;;;;;8.27;4.22;;;;;;;;;;5982516;29;20057;-81
2022/01/30 03:03:25;;;;;;;9.48;4.00;;;;;;;;;;5996716;29;20077;-80
2022/01/30 03:06:29;;;;;;;8.30;3.88;;;;;;;;;;5996936;29;20438;-80
2022/01/30 03:09:34;;;;;;;8.82;3.92;;;;;;;;;;5982426;29;20067;-80
2022/01/30 03:12:40;;;;;;;11.65;4.28;;;;;;;;;;5986222;29;20050;-81
2022/01/30 03:15:43;;;;;;;7.80;3.83;;;;;;;;;;5986088;29;20050;-79
2022/01/30 03:18:46;;;;;;;12.18;4.60;;;;;;;;;;5986689;29;20053;-79
2022/01/30 03:21:49;;;;;;;9.60;4.15;;;;;;;;;;5985934;29;20058;-81
2022/01/30 03:24:54;;;;;;;10.30;4.35;;;;;;;;;;6000799;29;20054;-81
2022/01/30 03:28:21;;;;;;;10.18;3.78;;;;;;;;;;5986115;29;20500;-79
2022/01/30 03:31:28;;;;;;;9.02;3.90;;;;;;;;;;5986593;29;20051;-80
2022/01/30 03:34:34;;;;;;;6.60;3.38;;;;;;;;;;5985662;29;20505;-79
2022/01/30 03:37:37;;;;;;;9.45;3.58;;;;;;;;;;5985606;29;20065;-79
2022/01/30 03:40:44;;;;;;;11.13;3.60;;;;;;;;;;5986429;29;20061;-79
2022/01/30 03:43:48;;;;;;;7.47;3.70;;;;;;;;;;5986311;29;20058;-78
2022/01/30 03:46:52;;;;;;;5.75;3.35;;;;;;;;;;5984948;29;20050;-78
2022/01/30 03:49:59;;;;;;;6.63;3.47;;;;;;;;;;5984624;29;20046;-75
2022/01/30 03:53:02;;;;;;;6.70;3.47;;;;;;;;;;5984430;29;20057;-76
2022/01/30 03:56:08;;;;;;;4.22;1.90;;;;;;;;;;5984565;29;20046;-76
2022/01/30 03:59:13;;;;;;;1.95;1.42;;;;;;;;;;5984876;29;20131;-77
2022/01/30 04:02:18;;;;;;;3.47;1.90;;;;;;;;;;5985648;29;20057;-76
2022/01/30 04:05:25;;;;;;;2.50;1.33;;;;;;;;;;5985191;29;20464;-74
2022/01/30 04:08:32;;;;;;;1.50;1.08;;;;;;;;;;5981706;29;20051;-74
2022/01/30 04:11:48;;;;;;;1.25;1.10;;;;;;;;;;5997782;29;20123;-75
2022/01/30 04:15:10;;;;;;;1.13;1.00;;;;;;;;;;5984182;29;20062;-76
2022/01/30 04:18:32;;;;;;;0.80;0.80;;;;;;;;;;5984694;29;20054;-76
2022/01/30 04:21:52;;;;;;;1.10;0.70;;;;;;;;;;5997491;29;20054;-76
2022/01/30 04:25:16;;;;;;;0.90;0.90;;;;;;;;;;5985815;29;20140;-80
2022/01/30 04:28:41;;;;;;;1.48;0.90;;;;;;;;;;5986404;29;20039;-79
2022/01/30 04:31:59;;;;;;;1.30;0.93;;;;;;;;;;6000361;29;20054;-77
2022/01/30 04:35:12;;;;;;;1.95;0.90;;;;;;;;;;5985473;29;20051;-77
2022/01/30 04:38:33;;;;;;;2.35;0.90;;;;;;;;;;5985552;29;20060;-79
2022/01/30 04:42:09;;;;;;;1.27;0.85;;;;;;;;;;5986177;29;20053;-76
2022/01/30 05:00:25;;;;;;;1.83;0.73;;;;;;;;;;5984895;29;20057;-78
2022/01/30 05:03:51;;;;;;;1.38;0.75;;;;;;;;;;5999810;29;20050;-77
2022/01/30 05:10:45;;;;;;;1.08;0.90;;;;;;;;;;5984463;29;20063;-77
2022/01/30 05:14:13;;;;;;;1.77;1.10;;;;;;;;;;5983124;29;20407;-77
2022/01/30 05:17:43;;;;;;;2.55;1.05;;;;;;;;;;5983311;29;20058;-77
2022/01/30 05:20:53;;;;;;;0.95;0.88;;;;;;;;;;5984068;29;20054;-77
2022/01/30 05:24:17;;;;;;;2.42;0.93;;;;;;;;;;5985599;29;20070;-77
2022/01/30 05:27:32;;;;;;;1.25;0.90;;;;;;;;;;5983427;29;20125;-78
2022/01/30 05:31:01;;;;;;;1.38;0.60;;;;;;;;;;5984212;29;20061;-78
2022/01/30 05:34:34;;;;;;;0.38;0.38;;;;;;;;;;5984016;29;20061;-76
2022/01/30 05:37:54;;;;;;;1.33;0.70;;;;;;;;;;5983889;29;20059;-76
2022/01/30 05:41:21;;;;;;;3.00;0.70;;;;;;;;;;5975683;29;20490;-80
2022/01/30 05:44:50;;;;;;;0.50;0.50;;;;;;;;;;5984335;29;20065;-77
2022/01/30 05:48:15;;;;;;;2.28;0.80;;;;;;;;;;5982876;29;20100;-76
2022/01/30 05:51:41;;;;;;;0.55;0.55;;;;;;;;;;5981724;29;20062;-76
2022/01/30 05:55:09;;;;;;;3.15;0.80;;;;;;;;;;5984601;29;20434;-77
2022/01/30 05:58:13;;;;;;;;;;;;;;;;;;5983407;29;20075;-76
2022/01/30 06:01:42;;;;;;;0.80;0.80;;;;;;;;;;5982544;29;19925;-77
2022/01/30 06:04:54;;;;;;;0.85;0.80;;;;;;;;;;5982501;29;20062;-75
2022/01/30 06:07:58;;;;;;;1.90;0.90;;;;;;;;;;5983332;29;20065;-76
2022/01/30 06:11:03;;;;;;;1.63;0.88;;;;;;;;;;5982421;29;20509;-75
2022/01/30 06:14:08;;;;;;;1.17;0.80;;;;;;;;;;5997217;29;20110;-75
2022/01/30 06:17:11;;;;;;;1.85;0.98;;;;;;;;;;5983119;29;20418;-75
2022/01/30 06:20:34;;;;;;;1.27;1.17;;;;;;;;;;5984519;29;20125;-76
2022/01/30 06:24:09;;;;;;;1.50;0.82;;;;;;;;;;5983784;29;20450;-76
2022/01/30 06:27:33;;;;;;;1.25;0.85;;;;;;;;;;5983030;29;20050;-76
2022/01/30 06:30:56;;;;;;;3.65;1.48;;;;;;;;;;5983526;29;20499;-76
2022/01/30 06:34:05;;;;;;;1.83;1.00;;;;;;;;;;5984266;29;20061;-75
2022/01/30 06:37:43;;;;;;;2.00;1.15;;;;;;;;;;5893960;29;20420;-74
2022/01/30 06:41:05;;;;;;;1.33;1.20;;;;;;;;;;5981817;29;20062;-77
2022/01/30 06:44:44;;;;;;;1.88;1.25;;;;;;;;;;5959182;29;20050;-75
2022/01/30 06:48:06;;;;;;;1.20;1.10;;;;;;;;;;5983685;29;20462;-77
2022/01/30 06:51:13;;;;;;;1.20;1.10;;;;;;;;;;5983920;29;20054;-76
2022/01/30 06:54:22;;;;;;;1.27;1.15;;;;;;;;;;5983021;29;20409;-78
2022/01/30 06:57:45;;;;;;;1.23;1.13;;;;;;;;;;5982475;29;20046;-77
2022/01/30 07:01:10;;;;;;;1.23;1.13;;;;;;;;;;5983276;29;20597;-79
2022/01/30 07:04:40;;;;;;;1.27;0.70;;;;;;;;;;5983509;29;20054;-77
2022/01/30 07:08:04;;;;;;;2.13;0.80;;;;;;;;;;5982281;29;20498;-77
2022/01/30 07:11:07;;;;;;;1.17;0.80;;;;;;;;;;5982403;29;20057;-77
2022/01/30 07:14:10;;;;;;;1.30;0.88;;;;;;;;;;5983196;29;20090;-76
2022/01/30 07:17:16;;;;;;;1.67;0.73;;;;;;;;;;5982140;29;20472;-76
2022/01/30 07:20:19;;;;;;;0.60;0.60;;;;;;;;;;5982673;29;20060;-76
2022/01/30 07:23:24;;;;;;;4.40;0.85;;;;;;;;;;5982464;29;20054;-76
2022/01/30 07:26:33;;;;;;;0.77;0.47;;;;;;;;;;5982162;29;20042;-81
2022/01/30 07:29:36;;;;;;;0.85;0.47;;;;;;;;;;5983393;29;20051;-82
2022/01/30 07:32:40;;;;;;;0.45;0.40;;;;;;;;;;5982304;29;20078;-82
2022/01/30 07:35:44;;;;;;;1.65;0.70;;;;;;;;;;5981881;29;20054;-85
2022/01/30 07:38:47;;;;;;;1.25;0.60;;;;;;;;;;5985929;29;20137;-93
2022/01/30 07:41:50;;;;;;;2.40;0.60;;;;;;;;;;5998601;29;20427;-82
2022/01/30 07:44:53;;;;;;;2.28;0.73;;;;;;;;;;5981514;29;20126;-83
2022/01/30 07:47:58;;;;;;;1.50;0.60;;;;;;;;;;5983088;29;20050;-77
2022/01/30 07:51:01;;;;;;;4.40;0.85;;;;;;;;;;5981253;29;20051;-76
2022/01/30 07:54:04;;;;;;;3.42;0.80;;;;;;;;;;5980668;29;20517;-76
2022/01/30 07:57:07;;;;;;;2.30;0.60;;;;;;;;;;5984946;29;20054;-76
2022/01/30 08:00:11;;;;;;;2.45;0.68;;;;;;;;;;6000854;29;20062;-80
2022/01/30 08:03:16;;;;;;;1.48;0.50;;;;;;;;;;5985544;29;20455;-79
2022/01/30 08:06:20;;;;;;;1.43;0.40;;;;;;;;;;5985270;29;20054;-79
2022/01/30 08:09:23;;;;;;;6.45;1.10;;;;;;;;;;5986944;29;20118;-77
2022/01/30 08:12:26;;;;;;;5.32;0.80;;;;;;;;;;5985798;29;20054;-77
2022/01/30 08:15:29;;;;;;;6.72;0.75;;;;;;;;;;5984430;29;20137;-78
2022/01/30 08:18:37;;;;;;;2.88;0.60;;;;;;;;;;5985374;29;20058;-78
2022/01/30 08:21:40;;;;;;;4.00;0.73;;;;;;;;;;5984941;29;20057;-76
2022/01/30 08:24:43;;;;;;;5.90;1.60;;;;;;;;;;5985107;29;20424;-75
2022/01/30 08:27:47;;;;;;;6.00;1.00;;;;;;;;;;5984901;29;20052;-78
2022/01/30 08:30:52;;;;;;;7.00;1.35;;;;;;;;;;5986382;29;20517;-76
2022/01/30 08:33:56;;;;;;;3.40;1.05;;;;;;;;;;5985040;29;20066;-77
2022/01/30 08:37:00;;;;;;;1.98;1.02;;;;;;;;;;5985748;29;20069;-78
2022/01/30 08:40:03;;;;;;;2.55;1.10;;;;;;;;;;5985994;29;20604;-78
2022/01/30 08:43:07;;;;;;;4.63;1.20;;;;;;;;;;5985710;29;20072;-77
2022/01/30 08:46:09;;;;;;;2.90;0.98;;;;;;;;;;5984680;29;20405;-76
2022/01/30 08:49:14;;;;;;;3.92;1.00;;;;;;;;;;5984722;29;20050;-78
2022/01/30 08:52:19;;;;;;;1.60;0.63;;;;;;;;;;5985920;29;20050;-78
2022/01/30 08:55:22;;;;;;;19.70;8.73;;;;;;;;;;5983115;29;20053;-76
2022/01/30 08:58:25;;;;;;;3.38;1.10;;;;;;;;;;5985788;29;20050;-79
2022/01/30 09:01:32;;;;;;;2.35;0.85;;;;;;;;;;5985849;29;20050;-77
2022/01/30 09:04:37;;;;;;;10.70;3.05;;;;;;;;;;5983544;29;20061;-77
2022/01/30 09:07:41;;;;;;;4.80;1.50;;;;;;;;;;5982848;29;20046;-81
2022/01/30 09:10:46;;;;;;;1.83;0.77;;;;;;;;;;5984148;29;20054;-78
2022/01/30 09:13:49;;;;;;;2.17;0.77;;;;;;;;;;5985389;29;20487;-75
2022/01/30 09:16:52;;;;;;;10.70;3.65;;;;;;;;;;5984034;29;20569;-75
2022/01/30 09:20:20;;;;;;;5.63;1.38;;;;;;;;;;5985389;29;20050;-80
2022/01/30 09:23:24;;;;;;;3.03;0.80;;;;;;;;;;5984254;29;20061;-76
2022/01/30 09:26:27;;;;;;;3.25;1.02;;;;;;;;;;5983436;29;20350;-76
2022/01/30 09:29:30;;;;;;;4.45;0.90;;;;;;;;;;5983025;29;20490;-78
2022/01/30 09:32:34;;;;;;;2.40;0.50;;;;;;;;;;5999369;29;20057;-77
2022/01/30 09:35:39;;;;;;;4.40;0.90;;;;;;;;;;5985176;29;20413;-75
2022/01/30 09:38:43;;;;;;;2.90;0.68;;;;;;;;;;5983369;29;20498;-76
2022/01/30 09:41:46;;;;;;;3.33;0.93;;;;;;;;;;5983570;29;20056;-78
2022/01/30 09:44:50;;;;;;;4.40;0.70;;;;;;;;;;5983751;29;20061;-81
2022/01/30 09:47:56;;;;;;;3.10;0.80;;;;;;;;;;5983119;29;20050;-76
2022/01/30 09:51:03;;;;;;;3.33;0.68;;;;;;;;;;5997760;29;20058;-76
2022/01/30 09:54:06;;;;;;;5.68;1.00;;;;;;;;;;5983569;29;20046;-76
2022/01/30 09:57:10;;;;;;;5.47;0.98;;;;;;;;;;5983582;29;20054;-75
2022/01/30 10:00:16;;;;;;;2.58;0.85;;;;;;;;;;5983608;29;20050;-76
2022/01/30 10:03:23;;;;;;;3.13;0.95;;;;;;;;;;5983569;29;20054;-76
2022/01/30 10:06:32;;;;;;;3.70;0.80;;;;;;;;;;5983169;29;20054;-75
2022/01/30 10:09:42;;;;;;;5.05;0.80;;;;;;;;;;5982288;29;20050;-74
2022/01/30 10:13:06;;;;;;;4.97;0.82;;;;;;;;;;5982346;29;20054;-80
2022/01/30 10:16:09;;;;;;;3.35;0.55;;;;;;;;;;5984480;29;20050;-74
2022/01/30 10:19:17;;;;;;;6.72;1.23;;;;;;;;;;5984196;29;20058;-76
2022/01/30 10:22:22;;;;;;;4.25;0.90;;;;;;;;;;5982682;29;20521;-76
2022/01/30 10:25:25;;;;;;;3.15;0.70;;;;;;;;;;5984223;29;20549;-76
2022/01/30 10:28:30;;;;;;;1.10;0.55;;;;;;;;;;5984145;29;20406;-77
2022/01/30 10:31:34;;;;;;;2.53;0.65;;;;;;;;;;5983718;29;20050;-76
2022/01/30 10:34:40;;;;;;;4.68;0.60;;;;;;;;;;5981182;29;20054;-74
2022/01/30 10:37:46;;;;;;;4.35;0.52;;;;;;;;;;5981637;29;20506;-74
2022/01/30 10:40:53;;;;;;;3.45;0.85;;;;;;;;;;5982870;29;20054;-73
2022/01/30 10:43:57;;;;;;;4.57;0.90;;;;;;;;;;5982482;29;20061;-75
2022/01/30 10:47:03;;;;;;;4.60;0.90;;;;;;;;;;5982533;29;20477;-75
2022/01/30 10:50:16;;;;;;;3.60;0.70;;;;;;;;;;5997702;29;20553;-77
2022/01/30 10:53:22;;;;;;;4.13;0.88;;;;;;;;;;5983716;29;20050;-75
2022/01/30 10:56:27;;;;;;;7.30;1.95;;;;;;;;;;5981536;29;20054;-85
2022/01/30 10:59:31;;;;;;;4.50;1.42;;;;;;;;;;5982651;29;20053;-77
2022/01/30 11:02:37;;;;;;;4.50;1.10;;;;;;;;;;5984576;29;20046;-77
2022/01/30 11:05:53;;;;;;;3.97;1.00;;;;;;;;;;5983069;29;20067;-79
2022/01/30 11:09:05;;;;;;;4.18;0.93;;;;;;;;;;5983452;29;20429;-83
2022/01/30 11:12:12;;;;;;;3.50;1.00;;;;;;;;;;5983094;29;20047;-83
2022/01/30 11:15:22;;;;;;;4.00;1.15;;;;;;;;;;5996834;29;20065;-78
2022/01/30 11:18:26;;;;;;;3.17;0.82;;;;;;;;;;5980879;29;20054;-80
2022/01/30 11:21:30;;;;;;;4.47;0.90;;;;;;;;;;5984568;29;20058;-76
2022/01/30 11:24:36;;;;;;;4.10;1.00;;;;;;;;;;5984773;29;20103;-79
2022/01/30 11:27:41;;;;;;;3.92;0.82;;;;;;;;;;5981330;29;20129;-86
2022/01/30 11:30:46;;;;;;;3.28;0.90;;;;;;;;;;5982233;29;20069;-80
2022/01/30 11:33:50;;;;;;;4.18;1.15;;;;;;;;;;5988904;29;20125;-82
2022/01/30 11:36:54;;;;;;;6.57;2.00;;;;;;;;;;5987865;29;20505;-83
2022/01/30 11:40:00;;;;;;;7.18;1.08;;;;;;;;;;5987206;29;20054;-81
2022/01/30 11:43:09;;;;;;;5.15;1.48;;;;;;;;;;5987054;29;20054;-78
2022/01/30 11:46:14;;;;;;;6.20;1.00;;;;;;;;;;5986723;29;20054;-77
2022/01/30 11:49:20;;;;;;;7.28;1.10;;;;;;;;;;5986272;29;20046;-78
2022/01/30 11:52:38;;;;;;;4.22;1.20;;;;;;;;;;5987932;29;20062;-77
2022/01/30 11:56:06;;;;;;;4.22;0.90;;;;;;;;;;5987463;29;20038;-78
2022/01/30 11:59:31;;;;;;;3.05;0.80;;;;;;;;;;5983233;29;20137;-78
2022/01/30 12:02:34;;;;;;;5.78;0.90;;;;;;;;;;5986189;29;20058;-77
2022/01/30 12:05:39;;;;;;;3.97;1.17;;;;;;;;;;5987698;29;20115;-77
2022/01/30 12:08:45;;;;;;;3.33;1.02;;;;;;;;;;5987918;29;20050;-77
2022/01/30 12:11:55;;;;;;;5.75;1.85;;;;;;;;;;6002599;29;20460;-86
2022/01/30 12:15:00;;;;;;;4.13;1.20;;;;;;;;;;5987000;29;20403;-79
2022/01/30 12:18:04;;;;;;;2.78;0.70;;;;;;;;;;5987117;29;20057;-77
2022/01/30 12:21:08;;;;;;;2.70;0.98;;;;;;;;;;5987643;29;20073;-79
2022/01/30 12:24:24;;;;;;;5.10;1.15;;;;;;;;;;5983620;29;20050;-76
2022/01/30 12:27:47;;;;;;;4.68;1.30;;;;;;;;;;5985364;29;20050;-74
2022/01/30 12:30:53;;;;;;;5.15;1.27;;;;;;;;;;5984920;29;20051;-77
2022/01/30 12:34:01;;;;;;;2.90;1.00;;;;;;;;;;5982784;29;20046;-74
2022/01/30 12:37:04;;;;;;;6.03;1.33;;;;;;;;;;5978906;29;20055;-76
2022/01/30 12:40:16;;;;;;;4.25;1.15;;;;;;;;;;5995574;29;20490;-74
2022/01/30 12:43:26;;;;;;;3.22;1.13;;;;;;;;;;5980118;29;20383;-78
2022/01/30 12:46:35;;;;;;;2.45;0.88;;;;;;;;;;5995527;29;20050;-76
2022/01/30 12:49:43;;;;;;;5.38;1.10;;;;;;;;;;5978592;29;20054;-77
2022/01/30 12:52:51;;;;;;;5.95;1.20;;;;;;;;;;5980285;29;20410;-82
2022/01/30 12:55:55;;;;;;;4.80;1.30;;;;;;;;;;5980654;29;20042;-76
2022/01/30 12:59:06;;;;;;;4.95;1.20;;;;;;;;;;5979779;29;20471;-77
2022/01/30 13:02:11;;;;;;;2.08;0.90;;;;;;;;;;5996922;29;20506;-80
2022/01/30 13:05:15;;;;;;;5.90;1.00;;;;;;;;;;5985021;29;20062;-80
2022/01/30 13:08:18;;;;;;;3.55;0.98;;;;;;;;;;5984691;29;20054;-76
2022/01/30 13:11:22;;;;;;;4.82;1.35;;;;;;;;;;5983146;29;20061;-77
2022/01/30 13:14:32;;;;;;;7.03;1.35;;;;;;;;;;5986002;29;20055;-77
2022/01/30 13:17:37;;;;;;;4.38;1.08;;;;;;;;;;5984829;29;20046;-74
2022/01/30 13:20:40;;;;;;;6.95;1.35;;;;;;;;;;5982890;29;20489;-75
2022/01/30 13:23:46;;;;;;;6.22;0.90;;;;;;;;;;5984276;29;20137;-77
2022/01/30 13:26:56;;;;;;;5.50;1.20;;;;;;;;;;5984729;29;20227;-76
2022/01/30 13:29:59;;;;;;;5.35;0.90;;;;;;;;;;5984151;29;20375;-75
2022/01/30 13:33:06;;;;;;;4.25;1.52;;;;;;;;;;5997776;29;20057;-77
2022/01/30 13:36:22;;;;;;;4.82;1.30;;;;;;;;;;5985599;29;20554;-77
2022/01/30 13:39:30;;;;;;;4.35;1.35;;;;;;;;;;5999413;29;20507;-74
2022/01/30 13:49:17;;;;;;;2.95;1.10;;;;;;;;;;5966040;29;20065;-76
2022/01/30 13:52:22;;;;;;;2.58;1.02;;;;;;;;;;5984147;29;20050;-76
2022/01/30 13:55:29;;;;;;;4.90;1.30;;;;;;;;;;5983459;29;20419;-77
2022/01/30 13:58:46;;;;;;;8.70;1.40;;;;;;;;;;5983494;29;20061;-78
2022/01/30 14:01:57;;;;;;;4.72;1.30;;;;;;;;;;5984138;29;20050;-77
2022/01/30 14:05:15;;;;;;;3.55;1.23;;;;;;;;;;5983678;29;20066;-76
2022/01/30 14:08:21;;;;;;;5.65;1.35;;;;;;;;;;5983092;29;20467;-75
2022/01/30 14:11:27;;;;;;;6.63;1.60;;;;;;;;;;5983564;29;20050;-76
2022/01/30 14:14:33;;;;;;;4.53;1.42;;;;;;;;;;5983749;29;20073;-75
2022/01/30 14:17:40;;;;;;;5.45;1.05;;;;;;;;;;5982841;29;20050;-76
2022/01/30 14:20:45;;;;;;;3.53;1.08;;;;;;;;;;5982116;29;20096;-77
2022/01/30 14:23:50;;;;;;;5.88;1.10;;;;;;;;;;5968796;29;20502;-76
2022/01/30 14:27:04;;;;;;;6.15;1.38;;;;;;;;;;5984766;29;20046;-78
2022/01/30 14:30:11;;;;;;;6.15;1.40;;;;;;;;;;5981735;29;20059;-76
2022/01/30 14:33:13;;;;;;;;;;;;;;;;;;5983976;29;20219;-78
2022/01/30 14:36:17;;;;;;;3.97;1.55;;;;;;;;;;5998610;29;19924;-76
2022/01/30 14:39:21;;;;;;;4.30;1.20;;;;;;;;;;5983996;29;20060;-75
2022/01/30 14:42:25;;;;;;;4.93;1.02;;;;;;;;;;5996748;29;20062;-75
2022/01/30 14:45:28;;;;;;;6.55;1.52;;;;;;;;;;5967901;29;20054;-77
2022/01/30 14:48:32;;;;;;;4.65;1.15;;;;;;;;;;5984284;29;20055;-76
2022/01/30 14:51:35;;;;;;;6.13;1.17;;;;;;;;;;5981138;29;20086;-75
2022/01/30 14:54:39;;;;;;;5.50;1.40;;;;;;;;;;5997963;29;20050;-75
2022/01/30 14:57:44;;;;;;;7.43;1.35;;;;;;;;;;5983491;29;20156;-74
2022/01/30 15:00:55;;;;;;;8.07;1.35;;;;;;;;;;5981857;29;20051;-75
2022/01/30 15:03:58;;;;;;;10.27;1.70;;;;;;;;;;5982238;29;20054;-73
2022/01/30 15:07:02;;;;;;;7.18;2.53;;;;;;;;;;6000208;29;20058;-77
2022/01/30 15:10:08;;;;;;;7.47;1.55;;;;;;;;;;5988205;29;20463;-75
2022/01/30 15:13:13;;;;;;;;;;;;;;;;;;5986008;29;20054;-78
2022/01/30 15:16:20;;;;;;;4.70;0.77;;;;;;;;;;5988385;29;20023;-77
2022/01/30 15:19:23;;;;;;;6.70;1.00;;;;;;;;;;5988148;29;20486;-76
2022/01/30 15:22:27;;;;;;;4.85;1.30;;;;;;;;;;6001149;29;20042;-73
2022/01/30 15:25:31;;;;;;;6.90;1.10;;;;;;;;;;5987472;29;20574;-75
2022/01/30 15:28:35;;;;;;;6.90;1.48;;;;;;;;;;5987942;29;20054;-72
2022/01/30 15:31:39;;;;;;;5.55;1.25;;;;;;;;;;5988083;29;20082;-74
2022/01/30 15:34:42;;;;;;;6.32;1.30;;;;;;;;;;5986618;29;20524;-73
2022/01/30 15:37:47;;;;;;;;;;;;;;;;;;6002473;29;20046;-73
2022/01/30 15:40:55;;;;;;;2.35;0.95;;;;;;;;;;5985671;29;20381;-74
2022/01/30 15:44:16;;;;;;;6.70;1.27;;;;;;;;;;5983006;29;20047;-71
2022/01/30 15:50:40;;;;;;;4.60;1.10;;;;;;;;;;5986126;29;20050;-72
2022/01/30 15:53:42;;;;;;;8.32;1.50;;;;;;;;;;5985878;29;20486;-72
2022/01/30 15:56:48;;;;;;;6.43;1.58;;;;;;;;;;5983694;29;20043;-73
2022/01/30 15:59:51;;;;;;;4.95;1.30;;;;;;;;;;5985651;29;20054;-72
2022/01/30 16:02:56;;;;;;;5.80;1.35;;;;;;;;;;5986153;29;20050;-73
2022/01/30 16:06:01;;;;;;;5.65;1.17;;;;;;;;;;5984691;29;20073;-71
2022/01/30 16:09:11;;;;;;;5.03;1.20;;;;;;;;;;6001217;29;20050;-73
2022/01/30 16:12:36;;;;;;;5.45;1.50;;;;;;;;;;5986836;29;20064;-73
2022/01/30 16:15:38;;;;;;;9.00;1.83;;;;;;;;;;5986868;29;20058;-73
2022/01/30 16:18:44;;;;;;;4.30;1.53;;;;;;;;;;5983702;29;20047;-73
2022/01/30 16:21:48;;;;;;;8.35;1.60;;;;;;;;;;5987388;29;20490;-73
2022/01/30 16:24:51;;;;;;;5.47;1.65;;;;;;;;;;5985675;29;20066;-75
2022/01/30 16:27:56;;;;;;;7.93;1.58;;;;;;;;;;5984971;29;20402;-73
2022/01/30 16:31:01;;;;;;;7.78;1.98;;;;;;;;;;5985228;29;20414;-74
2022/01/30 16:34:07;;;;;;;5.05;1.70;;;;;;;;;;5986087;29;20054;-74
2022/01/30 16:37:10;;;;;;;7.10;1.58;;;;;;;;;;5986360;29;20051;-74
2022/01/30 16:40:15;;;;;;;3.88;1.40;;;;;;;;;;5984139;29;20054;-74
2022/01/30 16:43:30;;;;;;;5.03;1.33;;;;;;;;;;5984948;29;20077;-74
2022/01/30 16:46:50;;;;;;;7.72;2.03;;;;;;;;;;5986626;29;20065;-73
2022/01/30 16:49:56;;;;;;;8.10;1.67;;;;;;;;;;5986280;29;20499;-73
2022/01/30 16:53:00;;;;;;;10.05;1.95;;;;;;;;;;5983504;29;20050;-75
2022/01/30 16:56:03;;;;;;;7.65;1.20;;;;;;;;;;5986136;29;20155;-73
2022/01/30 16:59:07;;;;;;;8.50;1.77;;;;;;;;;;5986961;29;20046;-73
2022/01/30 17:02:12;;;;;;;4.55;1.50;;;;;;;;;;5983743;29;20046;-75
2022/01/30 17:05:17;;;;;;;12.30;2.45;;;;;;;;;;6000448;29;20073;-77
2022/01/30 17:08:20;;;;;;;5.00;1.63;;;;;;;;;;5985632;29;20424;-76
2022/01/30 17:11:23;;;;;;;11.55;3.17;;;;;;;;;;5986803;29;20065;-75
2022/01/30 17:14:28;;;;;;;9.73;2.65;;;;;;;;;;5984809;29;20058;-77
2022/01/30 17:17:35;;;;;;;10.13;1.40;;;;;;;;;;5970971;29;20062;-74
2022/01/30 17:20:39;;;;;;;9.18;1.75;;;;;;;;;;5985165;29;20061;-76
2022/01/30 17:23:57;;;;;;;8.02;1.70;;;;;;;;;;5984311;29;20058;-75
2022/01/30 17:27:00;;;;;;;7.15;1.85;;;;;;;;;;5985418;29;20395;-73
2022/01/30 17:30:06;;;;;;;8.30;1.92;;;;;;;;;;5984382;29;20051;-75
2022/01/30 17:33:09;;;;;;;;;;;;;;;;;;5985458;29;20054;-74
2022/01/30 17:36:13;;;;;;;5.13;1.40;;;;;;;;;;5984254;29;19958;-75
2022/01/30 17:39:17;;;;;;;5.82;1.38;;;;;;;;;;5984308;29;20065;-79
2022/01/30 17:42:20;;;;;;;5.88;1.50;;;;;;;;;;5986075;29;20050;-74
2022/01/30 17:45:25;;;;;;;6.72;1.70;;;;;;;;;;5983917;29;20070;-76
2022/01/30 17:48:28;;;;;;;9.52;2.22;;;;;;;;;;5985445;29;20046;-75
2022/01/30 17:51:32;;;;;;;10.57;1.98;;;;;;;;;;5986059;29;20054;-76
2022/01/30 17:54:35;;;;;;;7.53;1.80;;;;;;;;;;5983939;29;20498;-75
2022/01/30 17:57:39;;;;;;;15.63;1.95;;;;;;;;;;5984145;29;20219;-76
2022/01/30 18:00:46;;;;;;;10.65;2.95;;;;;;;;;;5999116;29;20054;-75
2022/01/30 18:03:49;;;;;;;10.55;2.75;;;;;;;;;;5984914;29;20553;-80
2022/01/30 18:06:57;;;;;;;9.25;2.08;;;;;;;;;;5982278;29;20055;-77
2022/01/30 18:10:00;;;;;;;7.10;2.00;;;;;;;;;;5985201;29;20426;-77
2022/01/30 18:13:04;;;;;;;8.82;1.85;;;;;;;;;;5984427;29;20099;-81
2022/01/30 18:16:09;;;;;;;13.02;2.22;;;;;;;;;;5982673;29;20421;-78
2022/01/30 18:19:12;;;;;;;11.75;2.13;;;;;;;;;;5984608;29;20057;-78
2022/01/30 18:22:16;;;;;;;10.23;2.33;;;;;;;;;;5985310;29;20183;-77
2022/01/30 18:25:22;;;;;;;12.98;2.05;;;;;;;;;;5983246;29;20042;-76
2022/01/30 18:28:25;;;;;;;9.80;2.58;;;;;;;;;;5982295;29;20067;-77
2022/01/30 18:31:31;;;;;;;;;;;;;;;;;;5984763;29;20355;-78
2022/01/30 18:34:36;;;;;;;9.55;2.00;;;;;;;;;;5998640;29;19924;-77
2022/01/30 18:37:47;;;;;;;12.50;2.40;;;;;;;;;;5983184;29;20067;-74
2022/01/30 18:41:05;;;;;;;12.82;2.40;;;;;;;;;;5998063;29;20108;-75
2022/01/30 18:44:08;;;;;;;14.13;2.40;;;;;;;;;;5999381;29;20103;-75
2022/01/30 18:47:11;;;;;;;7.85;2.10;;;;;;;;;;5983847;29;20055;-78
2022/01/30 18:50:17;;;;;;;7.32;2.08;;;;;;;;;;5984303;29;20050;-76
2022/01/30 18:53:20;;;;;;;11.10;1.92;;;;;;;;;;5983572;29;20408;-75
2022/01/30 18:56:24;;;;;;;8.23;2.05;;;;;;;;;;5984165;29;20047;-78
2022/01/30 18:59:31;;;;;;;7.65;2.08;;;;;;;;;;5983383;29;20139;-77
2022/01/30 19:02:34;;;;;;;17.48;2.63;;;;;;;;;;5985031;29;20495;-77
2022/01/30 19:05:42;;;;;;;16.63;2.17;;;;;;;;;;5968302;29;20067;-75
2022/01/30 19:08:45;;;;;;;7.50;1.90;;;;;;;;;;5982874;29;20119;-75
2022/01/30 19:11:48;;;;;;;13.20;2.20;;;;;;;;;;5966453;29;20053;-75
2022/01/30 19:14:55;;;;;;;7.10;2.22;;;;;;;;;;5982787;29;20054;-77
2022/01/30 19:17:58;;;;;;;11.35;2.88;;;;;;;;;;5983742;29;20072;-78
2022/01/30 19:21:03;;;;;;;19.80;6.28;;;;;;;;;;5978601;29;20664;-76
2022/01/30 19:24:07;;;;;;;10.93;1.92;;;;;;;;;;5981819;29;20498;-79
2022/01/30 19:27:13;;;;;;;6.40;1.83;;;;;;;;;;5997431;29;20054;-78
2022/01/30 19:30:16;;;;;;;13.40;2.65;;;;;;;;;;5982062;29;20046;-78
2022/01/30 19:33:25;;;;;;;11.82;2.47;;;;;;;;;;5982492;29;20050;-78